Terminal Aerodrome Forecast
Issued by NWS Charleston, WV

Current Version | Previous Version | Graphics & Text | Print | Product List | Glossary On
Versions: 1 2 3 4 5 6 7 8 9 10 11 12 13 14 15 16 17 18 19 20 21 22 23 24 25 26
000
FTUS41 KRLX 251500 AAA
TAFEKN
TAF AMD
KEKN 251505Z 2515/2612 17005KT 6SM SHRA OVC060
     FM251600 16004KT P6SM OVC040
     FM252000 13004KT 4SM SHRA OVC030
     FM252300 12005KT 5SM SHRA BR OVC030=

USA.gov is the U.S. government's official web portal to all federal, state and local government web resources and services.